Time;durP1;ratioP1;P1;durP2;ratioP2;P2;SDS_P1;SDS_P2;PMS_P1;PMS_P2;Temp;Humidity;BMP_temperature;BMP_pressure;BME280_temperature;BME280_humidity;BME280_pressure;Samples;Min_cycle;Max_cycle;Signal;HPM_P1;HPM_P2
2023/10/13 00:01:54;;;;;;;17.90;10.60;;;;;;;16.59;100.00;101091.31;5029691;28;20448;-71
2023/10/13 00:04:24;;;;;;;16.55;9.55;;;;;;;16.60;100.00;101097.69;5039642;28;20045;-73
2023/10/13 00:06:56;;;;;;;20.25;10.13;;;;;;;16.58;100.00;101094.19;5049540;28;20393;-74
2023/10/13 00:09:25;;;;;;;18.38;9.50;;;;;;;16.61;100.00;101090.31;5028663;28;20069;-72
2023/10/13 00:11:55;;;;;;;22.98;10.45;;;;;;;16.58;100.00;101084.06;5044725;28;20034;-72
2023/10/13 00:14:21;;;;;;;18.30;9.32;;;;;;;16.57;100.00;101079.59;5027589;28;20049;-72
2023/10/13 00:17:03;;;;;;;14.95;8.95;;;;;;;16.57;100.00;101084.22;5034986;28;20105;-72
2023/10/13 00:19:46;;;;;;;17.27;9.75;;;;;;;16.56;100.00;101090.75;5036753;28;20099;-72
2023/10/13 00:22:15;;;;;;;17.50;8.40;;;;;;;16.52;100.00;101072.81;5029330;28;20449;-73
2023/10/13 00:24:45;;;;;;;18.38;9.23;;;;;;;16.51;100.00;101073.84;5011343;28;20056;-72
2023/10/13 00:27:29;;;;;;;14.98;8.18;;;;;;;16.50;100.00;101069.31;5034871;28;20068;-73
2023/10/13 00:30:17;;;;;;;17.45;8.75;;;;;;;16.49;100.00;101071.22;5010945;28;20097;-73
2023/10/13 00:32:51;;;;;;;20.95;8.77;;;;;;;16.45;100.00;101064.25;5029149;28;20039;-73
2023/10/13 00:35:28;;;;;;;15.68;8.63;;;;;;;16.42;100.00;101064.56;5045965;28;20388;-73
2023/10/13 00:38:03;;;;;;;14.38;7.72;;;;;;;16.42;100.00;101063.72;5011122;28;20088;-72
2023/10/13 00:43:03;;;;;;;11.13;7.93;;;;;;;16.39;100.00;101053.88;5042187;28;20045;-72
2023/10/13 00:45:33;;;;;;;16.42;8.32;;;;;;;16.35;100.00;101057.03;5027034;28;20489;-72
2023/10/13 00:48:01;;;;;;;16.13;8.35;;;;;;;16.36;100.00;101053.28;5028633;28;20061;-72
2023/10/13 00:50:27;;;;;;;14.30;7.90;;;;;;;16.32;100.00;101056.34;5027909;28;20037;-72
2023/10/13 00:52:54;;;;;;;15.23;7.93;;;;;;;16.32;100.00;101053.59;5027328;28;20519;-73
2023/10/13 00:55:22;;;;;;;19.17;8.43;;;;;;;16.31;100.00;101054.56;5026850;28;20052;-73
2023/10/13 00:57:59;;;;;;;16.35;7.40;;;;;;;16.31;100.00;101043.59;5036630;28;20065;-73
2023/10/13 01:00:28;;;;;;;19.38;8.18;;;;;;;16.32;100.00;101047.22;5029198;28;20045;-73
2023/10/13 01:02:57;;;;;;;16.80;7.80;;;;;;;16.28;100.00;101030.16;5048052;28;20037;-73
2023/10/13 01:05:25;;;;;;;13.75;7.68;;;;;;;16.27;100.00;101035.78;5027971;28;20037;-72
2023/10/13 01:07:58;;;;;;;13.25;7.82;;;;;;;16.26;100.00;101029.44;5026326;28;20532;-73
2023/10/13 01:10:27;;;;;;;;;;;;;;;16.28;100.00;101030.16;5028099;28;20161;-73
2023/10/13 01:12:53;;;;;;;13.75;7.55;;;;;;;16.26;100.00;101025.81;5028161;28;19916;-72
2023/10/13 01:15:21;;;;;;;19.23;7.68;;;;;;;16.24;100.00;101025.97;5028008;28;20040;-73
2023/10/13 01:17:47;;;;;;;17.95;7.65;;;;;;;16.24;100.00;101019.63;5036561;28;20135;-73
2023/10/13 01:20:26;;;;;;;14.40;7.32;;;;;;;16.22;100.00;101019.75;5042312;28;20580;-73
2023/10/13 01:22:57;;;;;;;14.48;7.07;;;;;;;16.22;100.00;101014.25;5014479;28;20455;-74
2023/10/13 01:25:28;;;;;;;14.38;6.85;;;;;;;16.21;100.00;101003.41;5046263;28;20102;-73
2023/10/13 01:27:53;;;;;;;15.75;6.45;;;;;;;16.20;100.00;101007.19;5031485;28;20037;-72
2023/10/13 01:30:24;;;;;;;20.35;6.68;;;;;;;16.19;100.00;101010.94;5027721;28;20053;-73
2023/10/13 01:32:51;;;;;;;13.82;6.90;;;;;;;16.16;100.00;100998.34;5027110;28;20052;-73
2023/10/13 01:35:25;;;;;;;13.80;7.15;;;;;;;16.17;100.00;100993.72;5027290;28;20045;-73
2023/10/13 01:37:51;;;;;;;15.75;6.25;;;;;;;16.16;100.00;100984.63;5026606;28;20043;-73
2023/10/13 01:40:19;;;;;;;13.07;6.82;;;;;;;16.16;100.00;100981.88;5027545;28;20030;-72
2023/10/13 01:42:55;;;;;;;11.43;6.28;;;;;;;16.15;100.00;100976.56;5037639;28;20497;-73
2023/10/13 01:45:21;;;;;;;12.43;6.40;;;;;;;16.16;100.00;100978.28;5027519;28;20366;-73
2023/10/13 01:47:46;;;;;;;13.60;6.05;;;;;;;16.14;100.00;100972.94;5026666;28;20083;-72
2023/10/13 01:50:20;;;;;;;10.63;6.15;;;;;;;16.12;100.00;100966.72;5025983;28;20532;-72
2023/10/13 01:52:46;;;;;;;14.43;6.72;;;;;;;16.11;100.00;100961.38;5026497;28;20128;-73
2023/10/13 01:55:14;;;;;;;13.45;6.20;;;;;;;16.10;100.00;100954.16;5027139;28;20388;-72
2023/10/13 01:57:42;;;;;;;12.30;6.40;;;;;;;16.07;100.00;100958.91;5027355;28;20338;-73
2023/10/13 02:00:18;;;;;;;12.63;6.57;;;;;;;16.07;100.00;100952.56;5009905;28;20037;-72
2023/10/13 02:02:49;;;;;;;10.27;6.00;;;;;;;16.04;100.00;100945.50;5010807;28;20042;-72
2023/10/13 02:05:16;;;;;;;12.93;6.00;;;;;;;16.04;100.00;100940.00;5009341;28;20042;-72
2023/10/13 02:07:45;;;;;;;14.77;6.50;;;;;;;16.02;100.00;100939.28;5042493;28;20124;-72
2023/10/13 02:10:12;;;;;;;13.70;6.28;;;;;;;16.05;100.00;100938.13;5026735;28;20521;-72
2023/10/13 02:12:46;;;;;;;16.35;5.93;;;;;;;16.03;100.00;100937.38;5025776;28;20029;-72
2023/10/13 02:15:25;;;;;;;13.77;6.90;;;;;;;16.05;100.00;100941.75;5025787;28;20116;-72
2023/10/13 02:17:52;;;;;;;15.80;6.95;;;;;;;16.04;100.00;100934.53;5025975;28;20041;-72
2023/10/13 02:20:30;;;;;;;16.80;8.40;;;;;;;16.06;100.00;100939.84;5025798;28;20033;-72
2023/10/13 02:22:55;;;;;;;16.48;7.30;;;;;;;16.05;100.00;100939.00;5025986;28;20041;-72
2023/10/13 02:25:42;;;;;;;16.17;7.13;;;;;;;16.03;100.00;100935.50;5025326;28;20029;-72
2023/10/13 02:28:15;;;;;;;18.60;8.23;;;;;;;16.10;100.00;100935.81;5043190;28;20029;-72
2023/10/13 02:30:48;;;;;;;18.90;8.48;;;;;;;16.07;100.00;100925.97;5044878;28;20053;-73
2023/10/13 02:33:16;;;;;;;15.88;8.52;;;;;;;16.10;100.00;100913.00;5028059;28;20033;-72
2023/10/13 02:35:42;;;;;;;19.75;8.00;;;;;;;16.11;100.00;100912.84;5025544;28;20029;-73
2023/10/13 02:38:11;;;;;;;16.15;8.40;;;;;;;16.12;100.00;100909.06;5039092;28;20036;-73
2023/10/13 02:40:38;;;;;;;16.23;9.48;;;;;;;16.14;100.00;100907.06;5033836;28;20072;-74
2023/10/13 02:43:05;;;;;;;18.33;9.15;;;;;;;16.15;100.00;100894.22;5026643;28;20033;-73
2023/10/13 02:45:37;;;;;;;20.05;9.25;;;;;;;16.15;100.00;100891.47;5026264;28;20037;-73
2023/10/13 02:48:12;;;;;;;21.77;9.43;;;;;;;16.15;100.00;100875.00;5027744;28;20477;-73
2023/10/13 02:50:43;;;;;;;21.10;10.93;;;;;;;16.18;100.00;100867.34;5026748;28;20041;-73
2023/10/13 02:53:12;;;;;;;19.83;10.45;;;;;;;16.19;100.00;100866.31;5025820;28;20033;-73
2023/10/13 02:55:52;;;;;;;17.35;10.65;;;;;;;16.20;100.00;100873.53;5041320;28;20021;-73
2023/10/13 02:58:18;;;;;;;25.67;11.82;;;;;;;16.19;100.00;100859.97;5041143;28;20436;-73
2023/10/13 03:00:44;;;;;;;24.65;12.73;;;;;;;16.22;100.00;100855.03;5027074;28;20114;-73
2023/10/13 03:03:10;;;;;;;23.58;12.00;;;;;;;16.23;100.00;100853.19;5025939;28;20136;-73
2023/10/13 03:05:38;;;;;;;32.53;12.60;;;;;;;16.22;100.00;100845.94;5045702;28;20385;-74
2023/10/13 03:08:05;;;;;;;25.38;13.52;;;;;;;16.21;100.00;100842.31;5042018;28;20117;-73
2023/10/13 03:10:30;;;;;;;26.48;13.70;;;;;;;16.23;100.00;100828.47;5025486;28;20128;-74
2023/10/13 03:12:56;;;;;;;32.78;13.93;;;;;;;16.22;100.00;100819.34;5035242;28;20120;-73
2023/10/13 03:15:29;;;;;;;24.98;13.40;;;;;;;16.25;100.00;100812.69;5029189;28;20057;-73
2023/10/13 03:17:55;;;;;;;26.30;14.23;;;;;;;16.24;100.00;100811.84;5029494;28;20520;-73
2023/10/13 03:20:31;;;;;;;31.25;14.60;;;;;;;16.24;100.00;100809.09;5031044;28;20067;-73
2023/10/13 03:22:57;;;;;;;32.97;15.98;;;;;;;16.27;100.00;100806.06;5050586;28;20119;-72
2023/10/13 03:25:29;;;;;;;25.95;14.25;;;;;;;16.27;100.00;100806.06;5048584;28;20040;-73
2023/10/13 03:30:30;;;;;;;26.75;14.82;;;;;;;16.28;100.00;100796.81;5029951;28;20067;-73
2023/10/13 03:32:56;;;;;;;33.63;15.50;;;;;;;16.32;100.00;100790.00;5013233;28;20057;-73
2023/10/13 03:35:24;;;;;;;36.00;15.15;;;;;;;16.35;100.00;100777.84;5029799;28;20071;-73
2023/10/13 03:37:54;;;;;;;29.38;15.50;;;;;;;16.36;100.00;100776.81;5030117;28;20037;-73
2023/10/13 03:43:06;;;;;;;32.53;17.67;;;;;;;16.40;100.00;100778.25;5043514;28;20045;-73
2023/10/13 03:45:39;;;;;;;35.22;18.20;;;;;;;16.43;100.00;100763.38;5049104;28;20036;-73
2023/10/13 03:48:09;;;;;;;39.63;18.15;;;;;;;16.47;100.00;100759.31;5049801;28;20491;-73
2023/10/13 03:50:36;;;;;;;35.03;19.45;;;;;;;16.49;100.00;100751.75;5030267;28;20069;-73
2023/10/13 03:53:03;;;;;;;38.13;19.75;;;;;;;16.47;100.00;100754.69;5030519;28;20107;-73
2023/10/13 03:55:29;;;;;;;40.03;18.50;;;;;;;16.50;100.00;100743.38;5028170;28;20057;-73
2023/10/13 03:57:54;;;;;;;36.92;19.40;;;;;;;16.53;100.00;100756.81;5041239;28;20046;-73
2023/10/13 04:00:30;;;;;;;37.75;18.42;;;;;;;16.55;100.00;100742.91;5027975;28;20083;-73
2023/10/13 04:03:16;;;;;;;34.20;19.00;;;;;;;16.58;100.00;100740.72;5029746;28;20852;-73
2023/10/13 04:05:46;;;;;;;39.83;19.88;;;;;;;16.61;100.00;100724.97;5048317;28;20029;-72
2023/10/13 04:08:46;;;;;;;38.67;19.38;;;;;;;16.62;100.00;100713.81;5040445;28;20041;-72
2023/10/13 04:16:15;;;;;;;38.38;19.27;;;;;;;16.71;100.00;100706.56;5032390;28;20064;-72
2023/10/13 04:32:30;;;;;;;33.03;16.98;;;;;;;16.81;100.00;100696.38;5049442;28;20469;-72
2023/10/13 04:35:17;;;;;;;34.50;16.77;;;;;;;16.82;100.00;100696.22;5043480;28;20041;-72
2023/10/13 04:37:50;;;;;;;30.45;17.15;;;;;;;16.86;100.00;100687.69;5029175;28;20069;-73
2023/10/13 04:40:19;;;;;;;31.92;15.23;;;;;;;16.87;100.00;100687.50;5047310;28;20115;-72
2023/10/13 04:42:56;;;;;;;24.98;14.65;;;;;;;16.89;100.00;100681.88;5043130;28;20156;-72
2023/10/13 04:50:46;;;;;;;28.92;14.32;;;;;;;16.98;100.00;100691.94;5028629;28;20041;-72
2023/10/13 05:04:22;;;;;;;20.27;11.32;;;;;;;17.04;100.00;100681.16;5038189;28;20136;-72
2023/10/13 05:45:24;;;;;;;11.75;6.75;;;;;;;17.13;100.00;100596.03;5027558;28;20037;-71
2023/10/13 05:48:01;;;;;;;13.55;7.10;;;;;;;17.15;100.00;100589.34;5027926;28;20033;-72
2023/10/13 06:28:41;;;;;;;17.38;7.68;;;;;;;17.10;100.00;100583.47;5026704;28;20041;-71
2023/10/13 06:31:07;;;;;;;17.17;8.10;;;;;;;17.11;100.00;100581.56;5035731;28;20541;-72
2023/10/13 06:33:36;;;;;;;16.85;7.93;;;;;;;17.11;100.00;100573.31;5026930;28;20040;-71
2023/10/13 06:36:09;;;;;;;18.33;7.97;;;;;;;17.12;100.00;100575.94;5026382;28;20049;-71
2023/10/13 06:38:38;;;;;;;17.38;8.63;;;;;;;17.11;100.00;100560.44;5026705;28;20045;-71
2023/10/13 06:41:07;;;;;;;13.93;7.20;;;;;;;17.11;100.00;100549.44;5027578;28;20692;-70
2023/10/13 06:43:39;;;;;;;14.57;8.05;;;;;;;17.11;100.00;100543.09;5046898;28;20041;-71
2023/10/13 06:46:05;;;;;;;;;;;;;;;17.13;100.00;100546.56;5034416;28;20481;-71
2023/10/13 06:48:34;;;;;;;21.80;7.60;;;;;;;17.11;100.00;100543.94;5028240;28;19979;-71
2023/10/13 06:51:04;;;;;;;16.52;6.82;;;;;;;17.11;100.00;100537.59;5030021;28;20052;-71
2023/10/13 06:53:30;;;;;;;19.25;7.57;;;;;;;17.11;100.00;100543.09;5030409;28;20094;-71
2023/10/13 06:55:58;;;;;;;20.23;7.90;;;;;;;17.13;100.00;100541.06;5031079;28;20030;-71
2023/10/13 06:58:25;;;;;;;16.13;8.20;;;;;;;17.16;100.00;100541.59;5030337;28;20068;-71
2023/10/13 07:00:54;;;;;;;15.65;6.82;;;;;;;17.13;100.00;100533.66;5030656;28;20132;-71
2023/10/13 07:03:21;;;;;;;18.60;7.55;;;;;;;17.14;100.00;100527.13;5039880;28;20037;-71
2023/10/13 07:05:50;;;;;;;21.02;8.27;;;;;;;17.14;100.00;100516.13;5030844;28;20100;-71
2023/10/13 07:08:23;;;;;;;19.15;8.75;;;;;;;17.18;100.00;100530.44;5029635;28;20489;-71
2023/10/13 07:11:02;;;;;;;19.60;8.13;;;;;;;17.17;100.00;100518.56;5030655;28;20049;-71
2023/10/13 07:13:31;;;;;;;18.55;8.38;;;;;;;17.19;100.00;100507.41;5048190;28;20072;-71
2023/10/13 07:16:05;;;;;;;20.30;8.02;;;;;;;17.21;100.00;100502.63;5048077;28;20047;-71
2023/10/13 07:18:36;;;;;;;18.35;7.85;;;;;;;17.24;100.00;100494.88;5030689;28;20072;-71
2023/10/13 07:21:09;;;;;;;16.67;7.90;;;;;;;17.27;100.00;100499.22;5031188;28;20033;-71
2023/10/13 07:23:35;;;;;;;20.90;8.25;;;;;;;17.30;100.00;100488.75;5038090;28;20801;-71
2023/10/13 07:26:04;;;;;;;17.88;7.75;;;;;;;17.31;100.00;100493.22;5049101;28;20037;-71
2023/10/13 07:28:36;;;;;;;23.75;9.00;;;;;;;17.31;100.00;100487.72;5047800;28;20045;-71
2023/10/13 07:33:31;;;;;;;17.63;8.93;;;;;;;17.46;100.00;100492.63;5046611;28;20551;-71
2023/10/13 07:36:15;;;;;;;15.80;7.72;;;;;;;17.52;100.00;100491.94;5028900;28;20037;-71
2023/10/13 07:38:42;;;;;;;23.73;7.65;;;;;;;17.59;100.00;100490.28;5029488;28;20047;-71
2023/10/13 07:41:08;;;;;;;23.35;8.55;;;;;;;17.64;100.00;100498.03;5045609;28;20037;-71
2023/10/13 07:43:34;;;;;;;21.77;7.78;;;;;;;17.70;100.00;100494.59;5028747;28;20072;-71
2023/10/13 07:45:59;;;;;;;18.65;7.20;;;;;;;17.79;100.00;100490.88;5030168;28;20528;-71
2023/10/13 07:48:25;;;;;;;19.33;7.20;;;;;;;17.87;100.00;100484.56;5029405;28;20022;-71
2023/10/13 07:51:03;;;;;;;17.75;7.15;;;;;;;17.95;100.00;100492.81;5030126;28;20542;-71
2023/10/13 07:53:34;;;;;;;13.98;6.65;;;;;;;17.97;100.00;100480.63;5028906;28;20048;-71
2023/10/13 07:56:05;;;;;;;16.08;6.38;;;;;;;18.03;100.00;100485.44;5033028;28;20056;-71
2023/10/13 07:58:34;;;;;;;12.32;6.30;;;;;;;18.06;100.00;100484.28;5029063;28;20041;-71
2023/10/13 08:01:08;;;;;;;14.00;7.05;;;;;;;18.10;100.00;100472.75;5028520;28;20207;-71
2023/10/13 08:03:44;;;;;;;14.65;6.60;;;;;;;18.14;100.00;100467.78;5029453;28;20489;-71
2023/10/13 08:08:37;;;;;;;13.15;6.50;;;;;;;18.17;100.00;100481.19;5036438;28;20037;-71
2023/10/13 08:11:40;;;;;;;14.50;6.97;;;;;;;18.20;100.00;100469.84;5050200;28;20128;-71
2023/10/13 08:14:22;;;;;;;15.48;5.85;;;;;;;18.28;100.00;100482.78;5029682;28;20064;-72
2023/10/13 08:16:54;;;;;;;14.73;5.82;;;;;;;18.34;100.00;100462.81;5029389;28;20072;-71
2023/10/13 08:19:27;;;;;;;16.10;6.47;;;;;;;18.41;100.00;100460.22;5028906;28;20112;-71
2023/10/13 08:21:58;;;;;;;14.80;7.10;;;;;;;18.50;100.00;100483.97;5029183;28;20136;-71
2023/10/13 08:48:13;;;;;;;12.82;5.47;;;;;;;19.11;100.00;100442.06;5049106;28;20052;-71
2023/10/13 09:09:58;;;;;;;14.65;6.30;;;;;;;19.39;100.00;100427.84;5036965;28;20859;-71
2023/10/13 09:15:59;;;;;;;19.92;6.22;;;;;;;19.43;100.00;100414.56;5031013;28;20378;-72
2023/10/13 09:18:38;;;;;;;17.15;6.32;;;;;;;19.43;100.00;100423.69;5028097;28;20493;-72
2023/10/13 09:21:29;;;;;;;22.90;5.85;;;;;;;19.43;100.00;100423.69;5048724;28;20492;-71
2023/10/13 09:23:49;;;;;;;16.73;6.50;;;;;;;19.42;100.00;100427.50;5046715;28;20041;-71
2023/10/13 09:26:16;;;;;;;17.65;6.57;;;;;;;19.44;100.00;100427.31;5041887;28;20052;-71
2023/10/13 09:28:43;;;;;;;15.75;6.50;;;;;;;19.45;100.00;100421.63;5047240;28;20033;-72
2023/10/13 09:31:09;;;;;;;13.75;6.35;;;;;;;19.45;100.00;100415.25;5047535;28;20440;-71
2023/10/13 09:33:36;;;;;;;14.30;5.70;;;;;;;19.46;100.00;100415.06;5044005;28;20032;-72
2023/10/13 09:36:12;;;;;;;18.77;6.18;;;;;;;19.46;99.84;100405.94;5027304;28;20045;-71
2023/10/13 09:38:40;;;;;;;20.45;7.05;;;;;;;19.51;100.00;100420.91;5027016;28;20520;-72
2023/10/13 09:41:20;;;;;;;15.35;6.20;;;;;;;19.58;100.00;100416.41;5027540;28;20148;-72
2023/10/13 09:43:46;;;;;;;12.63;6.78;;;;;;;19.67;100.00;100406.19;5027369;28;20041;-71
2023/10/13 09:46:23;;;;;;;16.42;6.55;;;;;;;19.75;97.58;100410.81;5047580;28;20097;-71
2023/10/13 09:49:04;;;;;;;23.15;6.40;;;;;;;19.78;99.14;100414.06;5044983;28;20033;-72
2023/10/13 09:51:31;;;;;;;12.02;6.38;;;;;;;19.78;99.35;100402.19;5046989;28;20059;-72
2023/10/13 09:54:19;;;;;;;17.27;6.45;;;;;;;19.80;99.61;100398.19;5046706;28;20111;-72
2023/10/13 09:57:01;;;;;;;18.55;6.45;;;;;;;19.88;97.39;100400.03;5042592;28;20072;-72
2023/10/13 09:59:43;;;;;;;14.38;5.68;;;;;;;19.99;95.75;100371.97;5026872;28;20069;-71
2023/10/13 10:02:09;;;;;;;18.50;6.13;;;;;;;20.11;94.46;100386.25;5027461;28;20132;-72
2023/10/13 10:04:51;;;;;;;14.32;5.97;;;;;;;20.20;93.84;100385.13;5034027;28;20116;-72
2023/10/13 10:07:28;;;;;;;18.52;5.82;;;;;;;20.24;95.24;100375.44;5027057;28;20041;-72
2023/10/13 10:09:58;;;;;;;16.50;5.95;;;;;;;20.25;92.50;100376.28;5033750;28;20068;-72
2023/10/13 10:12:51;;;;;;;14.13;5.95;;;;;;;20.28;96.33;100373.13;5036500;28;20037;-73
2023/10/13 10:15:35;;;;;;;13.30;5.93;;;;;;;20.24;94.96;100367.16;5026169;28;20049;-72
2023/10/13 10:18:02;;;;;;;21.65;6.68;;;;;;;20.15;93.11;100371.03;5045211;28;20044;-71
2023/10/13 10:20:45;;;;;;;14.43;5.60;;;;;;;20.13;90.90;100373.09;5027578;28;20440;-72
2023/10/13 10:23:24;;;;;;;21.90;7.05;;;;;;;20.06;92.83;100369.38;5024908;28;20052;-72
2023/10/13 10:25:51;;;;;;;19.77;6.53;;;;;;;20.02;89.76;100356.97;5020204;28;20037;-73
2023/10/13 10:28:19;;;;;;;18.45;6.72;;;;;;;20.01;90.20;100361.63;5021513;28;20049;-72
2023/10/13 10:30:44;;;;;;;15.82;6.30;;;;;;;20.04;90.96;100354.88;5026636;28;20729;-73
2023/10/13 10:33:15;;;;;;;17.77;6.70;;;;;;;20.03;90.56;100354.00;5026874;28;20112;-72
2023/10/13 10:35:46;;;;;;;16.00;7.05;;;;;;;20.04;90.43;100352.97;5026095;28;20073;-72
2023/10/13 10:38:24;;;;;;;19.77;6.55;;;;;;;20.09;88.49;100344.97;5025543;28;20481;-72
2023/10/13 10:40:56;;;;;;;15.05;6.18;;;;;;;20.13;88.73;100348.22;5026598;28;20069;-71
2023/10/13 10:43:25;;;;;;;;;;;;;;;20.19;91.68;100336.47;5026052;28;20065;-72
2023/10/13 10:45:51;;;;;;;15.88;5.57;;;;;;;20.17;88.55;100363.41;5027068;28;20272;-72
2023/10/13 10:48:17;;;;;;;21.05;6.70;;;;;;;20.16;88.37;100345.09;5026125;28;20072;-72
2023/10/13 10:50:55;;;;;;;15.00;5.47;;;;;;;20.20;90.28;100348.38;5044619;28;20432;-71
2023/10/13 10:53:33;;;;;;;18.58;6.75;;;;;;;20.17;90.27;100338.53;5045226;28;20044;-72
2023/10/13 10:56:08;;;;;;;18.02;6.20;;;;;;;20.20;87.59;100349.22;5046762;28;20041;-72
2023/10/13 10:58:43;;;;;;;13.63;5.80;;;;;;;20.25;88.69;100354.19;5027087;28;20087;-72
2023/10/13 11:01:20;;;;;;;17.88;6.80;;;;;;;20.27;88.29;100363.13;5026747;28;20444;-72
2023/10/13 11:04:09;;;;;;;16.05;6.05;;;;;;;20.33;89.74;100362.38;5026320;28;20040;-72
2023/10/13 11:06:41;;;;;;;16.83;6.95;;;;;;;20.37;87.72;100356.28;5026676;28;20116;-71
2023/10/13 11:11:52;;;;;;;14.27;6.05;;;;;;;20.52;88.95;100352.78;5026444;28;20172;-72
2023/10/13 11:14:24;;;;;;;18.48;6.80;;;;;;;20.60;85.65;100333.31;5024493;28;20056;-72
2023/10/13 11:16:53;;;;;;;17.98;6.35;;;;;;;20.64;87.20;100326.38;5030357;28;20850;-72
2023/10/13 11:19:34;;;;;;;16.38;7.00;;;;;;;20.63;85.15;100322.75;5028416;28;20041;-72
2023/10/13 11:22:10;;;;;;;17.45;6.72;;;;;;;20.61;87.89;100316.56;5026365;28;20033;-72
2023/10/13 11:24:42;;;;;;;17.77;7.20;;;;;;;20.62;88.34;100328.47;5024549;28;20485;-73
2023/10/13 11:27:21;;;;;;;15.07;7.20;;;;;;;20.66;85.82;100293.88;5025811;28;20042;-73
2023/10/13 11:29:52;;;;;;;15.93;6.20;;;;;;;20.75;86.92;100302.91;5025874;28;20457;-72
2023/10/13 11:32:20;;;;;;;16.92;6.32;;;;;;;20.81;84.92;100285.56;5027094;28;20048;-72
2023/10/13 11:34:51;;;;;;;16.73;6.65;;;;;;;20.90;85.21;100298.25;5033744;28;20033;-72
2023/10/13 11:37:37;;;;;;;16.20;6.88;;;;;;;20.97;84.80;100276.19;5029968;28;20448;-72
2023/10/13 11:40:12;;;;;;;18.90;6.63;;;;;;;21.06;84.56;100278.66;5029937;28;20048;-73
2023/10/13 11:42:43;;;;;;;24.10;7.75;;;;;;;21.13;83.49;100276.00;5029073;28;20045;-72
2023/10/13 11:45:28;;;;;;;22.42;7.55;;;;;;;21.18;82.62;100250.53;5029479;28;20041;-73
2023/10/13 11:48:00;;;;;;;16.38;6.85;;;;;;;21.25;82.36;100265.28;5028462;28;20560;-73
2023/10/13 11:50:33;;;;;;;13.00;6.13;;;;;;;21.33;83.58;100265.19;5032155;28;20064;-71
2023/10/13 11:53:00;;;;;;;17.23;6.60;;;;;;;21.34;80.46;100245.63;5049756;28;20076;-72
2023/10/13 11:55:25;;;;;;;18.75;6.43;;;;;;;21.36;79.08;100262.91;5043533;28;20694;-72
2023/10/13 11:57:51;;;;;;;21.90;6.63;;;;;;;21.36;80.89;100249.06;5040981;28;20544;-72
2023/10/13 12:00:50;;;;;;;14.45;6.85;;;;;;;21.38;80.02;100238.66;5049244;28;20106;-72
2023/10/13 12:08:49;;;;;;;17.25;6.53;;;;;;;21.48;80.31;100240.22;5030594;28;20044;-73
2023/10/13 12:11:30;;;;;;;21.98;7.90;;;;;;;21.53;78.17;100235.81;5049705;28;20052;-72
2023/10/13 12:13:55;;;;;;;20.25;7.25;;;;;;;21.61;79.62;100229.28;5047037;28;20037;-72
2023/10/13 12:16:21;;;;;;;20.27;7.20;;;;;;;21.69;78.43;100229.16;5045833;28;20041;-72
2023/10/13 12:18:53;;;;;;;15.88;7.28;;;;;;;21.76;78.30;100237.53;5032535;28;20040;-71
2023/10/13 12:21:21;;;;;;;17.95;6.72;;;;;;;21.81;78.03;100229.47;5049091;28;20754;-71
2023/10/13 12:23:46;;;;;;;19.40;6.60;;;;;;;21.90;79.48;100222.75;5048495;28;20037;-72
2023/10/13 12:26:19;;;;;;;21.67;7.15;;;;;;;21.98;78.13;100227.28;5039459;28;20542;-72
2023/10/13 12:28:51;;;;;;;;;;;;;;;22.07;78.34;100240.78;5043575;28;20409;-71
2023/10/13 12:31:17;;;;;;;18.02;6.60;;;;;;;22.11;78.12;100244.03;5029410;28;19921;-71
2023/10/13 12:33:43;;;;;;;27.98;7.53;;;;;;;22.11;75.14;100238.47;5028846;28;20030;-72
2023/10/13 12:36:09;;;;;;;15.77;6.55;;;;;;;22.14;74.47;100238.94;5029357;28;20396;-71
2023/10/13 12:38:51;;;;;;;17.92;7.22;;;;;;;22.14;76.95;100240.84;5028972;28;20036;-71
2023/10/13 12:52:16;;;;;;;19.52;6.70;;;;;;;22.03;74.03;100220.06;5028893;28;20460;-73
2023/10/13 12:57:30;;;;;;;18.23;5.57;;;;;;;22.03;73.82;100206.22;5028290;28;20047;-72
2023/10/13 12:59:55;;;;;;;20.63;6.90;;;;;;;22.02;73.63;100220.28;5027984;28;20114;-71
2023/10/13 13:02:21;;;;;;;21.83;6.18;;;;;;;22.03;72.83;100224.75;5028977;28;20045;-71
2023/10/13 13:04:54;;;;;;;23.27;6.88;;;;;;;22.06;73.36;100221.59;5027582;28;20045;-71
2023/10/13 13:07:20;;;;;;;19.38;6.72;;;;;;;22.06;71.88;100210.53;5028192;28;20473;-71
2023/10/13 13:09:45;;;;;;;20.80;5.82;;;;;;;22.06;71.63;100205.84;5042962;28;20116;-71
2023/10/13 13:12:13;;;;;;;18.77;6.30;;;;;;;22.06;73.21;100216.91;5040998;28;20120;-72
2023/10/13 13:14:42;;;;;;;20.38;6.25;;;;;;;22.04;71.90;100210.69;5028007;28;20140;-71
2023/10/13 13:17:07;;;;;;;25.80;6.60;;;;;;;22.03;71.70;100195.16;5028161;28;20022;-71
2023/10/13 13:19:36;;;;;;;18.85;6.18;;;;;;;22.02;70.41;100207.28;5026846;28;20109;-71
2023/10/13 13:22:03;;;;;;;14.88;6.10;;;;;;;22.02;71.86;100209.22;5028670;28;20063;-72
2023/10/13 13:24:29;;;;;;;22.05;6.88;;;;;;;22.02;69.77;100204.53;5035412;28;20115;-71
2023/10/13 13:26:56;;;;;;;16.35;4.97;;;;;;;22.00;71.16;100203.84;5032029;28;20060;-72
2023/10/13 13:29:22;;;;;;;15.00;5.13;;;;;;;22.00;70.43;100198.31;5027457;28;20118;-72
2023/10/13 13:31:47;;;;;;;16.83;6.05;;;;;;;22.00;70.84;100209.38;5028008;28;20485;-72
2023/10/13 13:34:12;;;;;;;18.02;6.20;;;;;;;21.98;70.33;100196.81;5027467;28;20099;-71
2023/10/13 13:36:41;;;;;;;17.10;5.15;;;;;;;21.94;70.64;100192.72;5010356;28;20065;-71
2023/10/13 13:39:07;;;;;;;18.15;5.18;;;;;;;21.88;70.67;100203.56;5041922;28;20044;-71
2023/10/13 13:41:33;;;;;;;18.10;5.32;;;;;;;21.81;72.41;100202.63;5045436;28;20025;-72
2023/10/13 13:44:12;;;;;;;17.40;5.35;;;;;;;21.77;69.88;100198.53;5027046;28;20045;-71
2023/10/13 13:46:41;;;;;;;22.27;5.60;;;;;;;21.72;71.07;100194.66;5027863;28;20127;-71
2023/10/13 13:49:08;;;;;;;16.10;5.32;;;;;;;21.65;71.57;100198.25;5027523;28;20588;-71
2023/10/13 13:51:34;;;;;;;17.27;5.43;;;;;;;21.58;72.05;100180.72;5047604;28;20083;-70
2023/10/13 13:54:00;;;;;;;16.77;5.55;;;;;;;21.53;72.89;100191.53;5046349;28;20120;-71
2023/10/13 13:56:28;;;;;;;17.63;5.00;;;;;;;21.51;72.13;100192.78;5045464;28;20107;-71
2023/10/13 13:59:06;;;;;;;14.13;5.50;;;;;;;21.50;72.20;100186.41;5026179;28;20036;-71
2023/10/13 14:01:34;;;;;;;16.50;4.95;;;;;;;21.49;72.13;100192.13;5026621;28;20516;-71
2023/10/13 14:04:02;;;;;;;13.57;5.30;;;;;;;21.53;71.37;100187.91;5027367;28;20384;-71
2023/10/13 14:06:28;;;;;;;23.73;6.20;;;;;;;21.55;71.27;100178.34;5027906;28;20065;-71
2023/10/13 14:09:04;;;;;;;20.73;6.03;;;;;;;21.56;69.39;100181.97;5025078;28;20112;-72
2023/10/13 14:16:51;;;;;;;14.02;5.13;;;;;;;21.58;72.33;100185.38;5036325;28;20044;-71
2023/10/13 14:19:28;;;;;;;16.30;5.05;;;;;;;21.58;70.68;100182.63;5038051;28;20457;-71
2023/10/13 14:21:57;;;;;;;15.23;5.18;;;;;;;21.61;70.06;100202.47;5027551;28;20467;-71
2023/10/13 14:24:33;;;;;;;15.55;4.93;;;;;;;21.67;69.49;100192.50;5026355;28;20075;-71
2023/10/13 14:27:10;;;;;;;17.20;5.88;;;;;;;21.73;71.54;100200.03;5026805;28;20041;-71
2023/10/13 14:29:40;;;;;;;10.90;5.03;;;;;;;21.78;69.84;100199.44;5034327;28;20042;-71
2023/10/13 14:32:13;;;;;;;14.27;5.78;;;;;;;21.79;70.05;100196.44;5027479;28;20103;-71
2023/10/13 14:34:43;;;;;;;18.20;5.30;;;;;;;21.83;71.28;100197.78;5041417;28;20497;-72
2023/10/13 14:37:12;;;;;;;17.20;5.38;;;;;;;21.86;70.92;100202.88;5033865;28;20508;-71
2023/10/13 14:39:38;;;;;;;11.48;5.05;;;;;;;21.83;70.01;100191.38;5026342;28;20045;-71
2023/10/13 14:42:06;;;;;;;16.75;5.70;;;;;;;21.78;70.81;100197.50;5025897;28;20489;-71
2023/10/13 14:44:35;;;;;;;16.40;5.57;;;;;;;21.72;70.99;100192.75;5026663;28;20045;-72
2023/10/13 14:47:01;;;;;;;16.73;5.35;;;;;;;21.67;70.71;100197.19;5027852;28;20053;-71
2023/10/13 14:49:27;;;;;;;15.25;4.43;;;;;;;21.64;70.98;100201.22;5026019;28;20041;-71